createdAt,value
2023-09-17T00:02:10.531Z,100878.06
2023-09-17T00:05:13.098Z,100879.63
2023-09-17T00:08:15.584Z,100874.13
2023-09-17T00:11:18.112Z,100869.41
2023-09-17T00:14:20.604Z,100865.47
2023-09-17T00:17:23.671Z,100873.75
2023-09-17T00:20:26.372Z,100870.59
2023-09-17T00:23:28.796Z,100857.22
2023-09-17T00:26:32.208Z,100869.81
2023-09-17T00:29:35.157Z,100857.22
2023-09-17T00:32:37.622Z,100849.75
2023-09-17T00:35:40.027Z,100867.44
2023-09-17T00:38:42.472Z,100849.75
2023-09-17T00:41:45.053Z,100870.59
2023-09-17T00:44:47.399Z,100850.53
2023-09-17T00:47:49.834Z,100852.50
2023-09-17T00:50:52.333Z,100856.81
2023-09-17T00:53:56.799Z,100852.09
2023-09-17T00:56:59.687Z,100852.09
2023-09-17T01:00:04.096Z,100831.28
2023-09-17T01:03:10.071Z,100847.38
2023-09-17T01:06:13.849Z,100845.81
2023-09-17T01:09:16.916Z,100856.81
2023-09-17T01:12:19.469Z,100846.22
2023-09-17T01:15:21.841Z,100858.00
2023-09-17T01:18:24.259Z,100854.84
2023-09-17T01:21:40.191Z,100857.22
2023-09-17T01:25:07.863Z,100842.28
2023-09-17T01:28:14.504Z,100843.47
2023-09-17T01:31:17.275Z,100850.94
2023-09-17T01:34:19.803Z,100847.41
2023-09-17T01:37:26.015Z,100842.28
2023-09-17T01:40:29.528Z,100838.38
2023-09-17T01:43:33.751Z,100838.38
2023-09-17T01:46:37.497Z,100832.88
2023-09-17T01:49:41.940Z,100838.38
2023-09-17T01:52:44.611Z,100843.09
2023-09-17T01:55:52.171Z,100839.94
2023-09-17T01:58:54.665Z,100808.13
2023-09-17T02:01:57.488Z,100823.81
2023-09-17T02:04:59.904Z,100812.84
2023-09-17T02:08:02.304Z,100816.38
2023-09-17T02:11:07.213Z,100820.28
2023-09-17T02:14:09.602Z,100809.31
2023-09-17T02:17:13.756Z,100794.38
2023-09-17T02:20:17.121Z,100817.53
2023-09-17T02:23:19.497Z,100817.53
2023-09-17T02:26:22.893Z,100799.09
2023-09-17T02:29:25.296Z,100801.84
2023-09-17T02:32:28.158Z,100827.78
2023-09-17T02:35:30.676Z,100818.75
2023-09-17T02:38:33.211Z,100825.03
2023-09-17T02:41:35.589Z,100838.00
2023-09-17T02:44:38.088Z,100822.69
2023-09-17T02:47:41.798Z,100841.16
2023-09-17T02:50:44.933Z,100838.41
2023-09-17T02:53:48.243Z,100837.63
2023-09-17T02:56:50.921Z,100845.09
2023-09-17T02:59:53.449Z,100826.22
2023-09-17T03:02:56.264Z,100812.09
2023-09-17T03:06:00.624Z,100831.34
2023-09-17T03:09:08.827Z,100831.75
2023-09-17T03:12:12.055Z,100820.75
2023-09-17T03:15:14.864Z,100830.56
2023-09-17T03:18:17.465Z,100828.22
2023-09-17T03:21:20.293Z,100830.97
2023-09-17T03:24:22.757Z,100831.34
2023-09-17T03:27:25.242Z,100814.06
2023-09-17T03:30:28.489Z,100826.25
2023-09-17T03:33:33.293Z,100820.34
2023-09-17T03:36:38.638Z,100811.72
2023-09-17T03:39:44.604Z,100831.34
2023-09-17T03:42:48.556Z,100807.78
2023-09-17T03:45:52.477Z,100819.56
2023-09-17T03:48:54.927Z,100804.25
2023-09-17T03:51:57.366Z,100807.78
2023-09-17T03:54:59.819Z,100831.34
2023-09-17T03:58:02.524Z,100830.59
2023-09-17T04:01:10.642Z,100806.22
2023-09-17T04:04:13.158Z,100818.78
2023-09-17T04:07:15.633Z,100828.22
2023-09-17T04:10:18.916Z,100836.47
2023-09-17T04:13:21.505Z,100834.91
2023-09-17T04:16:24.915Z,100830.59
2023-09-17T04:19:29.513Z,100833.72
2023-09-17T04:22:34.705Z,100829.81
2023-09-17T04:25:37.277Z,100831.38
2023-09-17T04:28:40.184Z,100819.59
2023-09-17T04:31:42.688Z,100851.81
2023-09-17T04:34:45.198Z,100842.78
2023-09-17T04:37:49.497Z,100856.91
2023-09-17T04:40:53.563Z,100851.03
2023-09-17T04:43:56.069Z,100853.38
2023-09-17T04:46:58.775Z,100845.53
2023-09-17T04:50:02.179Z,100860.06
2023-09-17T04:53:05.504Z,100859.69
2023-09-17T04:56:08.300Z,100874.22
2023-09-17T04:59:12.110Z,100869.13
2023-09-17T05:02:17.946Z,100860.47
2023-09-17T05:05:24.190Z,100878.94
2023-09-17T05:08:28.845Z,100867.94
2023-09-17T05:11:31.567Z,100869.13
2023-09-17T05:14:33.974Z,100876.59
2023-09-17T05:17:38.037Z,100869.13
2023-09-17T05:20:44.963Z,100866.34
2023-09-17T05:23:47.562Z,100887.19
2023-09-17T05:26:50.107Z,100870.31
2023-09-17T05:29:53.188Z,100884.44
2023-09-17T05:32:56.138Z,100873.81
2023-09-17T05:35:58.715Z,100880.50
2023-09-17T05:39:04.570Z,100902.91
2023-09-17T05:42:07.639Z,100908.00
2023-09-17T05:45:10.670Z,100891.09
2023-09-17T05:48:13.126Z,100907.59
2023-09-17T05:51:15.861Z,100895.03
2023-09-17T05:54:18.990Z,100888.75
2023-09-17T05:57:21.710Z,100891.09
2023-09-17T06:00:24.314Z,100904.84
2023-09-17T06:03:26.769Z,100917.00
2023-09-17T06:06:29.528Z,100905.63
2023-09-17T06:09:32.829Z,100922.13
2023-09-17T06:12:35.284Z,100897.75
2023-09-17T06:15:39.515Z,100909.94
2023-09-17T06:18:42.004Z,100905.22
2023-09-17T06:21:44.806Z,100910.31
2023-09-17T06:24:47.596Z,100907.19
2023-09-17T06:27:50.048Z,100910.31
2023-09-17T06:30:52.732Z,100896.94
2023-09-17T06:33:55.424Z,100905.59
2023-09-17T06:36:58.064Z,100912.25
2023-09-17T06:40:00.461Z,100902.81
2023-09-17T06:43:03.491Z,100908.69
2023-09-17T06:46:05.958Z,100913.38
2023-09-17T06:49:08.370Z,100910.25
2023-09-17T06:52:10.849Z,100913.38
2023-09-17T06:55:13.428Z,100913.75
2023-09-17T06:58:18.044Z,100920.41
2023-09-17T07:01:20.641Z,100916.47
2023-09-17T07:04:23.283Z,100935.69
2023-09-17T07:07:25.890Z,100919.94
2023-09-17T07:10:28.446Z,100921.81
2023-09-17T07:13:31.488Z,100930.03
2023-09-17T07:16:33.953Z,100924.84
2023-09-17T07:19:36.961Z,100935.75
2023-09-17T07:22:39.414Z,100925.09
2023-09-17T07:25:41.953Z,100923.44
2023-09-17T07:28:44.972Z,100928.91
2023-09-17T07:31:48.513Z,100915.50
2023-09-17T07:34:51.074Z,100939.03
2023-09-17T07:37:53.541Z,100915.38
2023-09-17T07:40:56.068Z,100924.72
2023-09-17T07:43:59.962Z,100922.28
2023-09-17T07:47:04.063Z,100932.44
2023-09-17T07:50:07.131Z,100928.09
2023-09-17T07:53:09.562Z,100928.09
2023-09-17T07:56:11.912Z,100934.75
2023-09-17T07:59:14.272Z,100928.91
2023-09-17T08:02:17.082Z,100933.56
2023-09-17T08:05:19.573Z,100924.53
2023-09-17T08:08:21.998Z,100933.94
2023-09-17T08:11:28.285Z,100945.00
2023-09-17T08:14:30.710Z,100935.97
2023-09-17T08:17:33.142Z,100934.34
2023-09-17T08:20:35.589Z,100931.22
2023-09-17T08:23:37.927Z,100936.75
2023-09-17T08:26:40.314Z,100935.56
2023-09-17T08:29:42.731Z,100928.50
2023-09-17T08:32:45.777Z,100937.50
2023-09-17T08:35:48.448Z,100932.75
2023-09-17T08:38:51.701Z,100930.44
2023-09-17T08:41:54.149Z,100935.50
2023-09-17T08:44:58.180Z,100935.88
2023-09-17T08:48:00.663Z,100916.63
2023-09-17T08:51:04.320Z,100924.41
2023-09-17T08:54:09.892Z,100918.94
2023-09-17T08:57:14.166Z,100923.22
2023-09-17T09:00:18.862Z,100920.47
2023-09-17T09:03:22.118Z,100921.66
2023-09-17T09:06:26.167Z,100922.81
2023-09-17T09:09:28.749Z,100916.09
2023-09-17T09:12:31.412Z,100918.44
2023-09-17T09:15:33.979Z,100912.56
2023-09-17T09:18:36.452Z,100906.66
2023-09-17T09:21:38.846Z,100910.56
2023-09-17T09:24:48.898Z,100914.13
2023-09-17T09:27:51.323Z,100904.31
2023-09-17T09:30:53.993Z,100909.00
2023-09-17T09:34:02.922Z,100909.00
2023-09-17T09:37:09.733Z,100912.56
2023-09-17T09:40:12.613Z,100903.47
2023-09-17T09:43:33.766Z,100903.06
2023-09-17T09:46:37.218Z,100897.59
2023-09-17T09:49:41.650Z,100894.81
2023-09-17T09:52:44.114Z,100897.22
2023-09-17T09:55:48.088Z,100894.44
2023-09-17T09:58:50.507Z,100894.44
2023-09-17T10:01:53.178Z,100883.88
2023-09-17T10:04:55.704Z,100885.00
2023-09-17T10:07:58.155Z,100890.13
2023-09-17T10:11:00.696Z,100879.97
2023-09-17T10:14:07.300Z,100895.28
2023-09-17T10:17:12.389Z,100892.13
2023-09-17T10:20:16.650Z,100889.78
2023-09-17T10:23:20.266Z,100888.19
2023-09-17T10:26:23.419Z,100881.13
2023-09-17T10:29:26.714Z,100877.94
2023-09-17T10:32:30.248Z,100882.28
2023-09-17T10:35:33.514Z,100880.31
2023-09-17T10:38:37.209Z,100861.47
2023-09-17T10:41:40.697Z,100873.63
2023-09-17T10:44:43.995Z,100866.53
2023-09-17T10:47:47.622Z,100865.75
2023-09-17T10:50:50.106Z,100853.50
2023-09-17T10:53:52.734Z,100848.03
2023-09-17T10:56:56.999Z,100857.47
2023-09-17T11:00:00.106Z,100851.16
2023-09-17T11:03:04.997Z,100852.34
2023-09-17T11:06:15.312Z,100849.59
2023-09-17T11:09:18.392Z,100846.81
2023-09-17T11:12:24.192Z,100843.28
2023-09-17T11:15:26.755Z,100833.88
2023-09-17T11:18:29.161Z,100838.53
2023-09-17T11:21:31.608Z,100834.59
2023-09-17T11:24:34.249Z,100833.81
2023-09-17T11:28:10.076Z,100824.34
2023-09-17T11:31:15.338Z,100836.97
2023-09-17T11:34:17.817Z,100838.16
2023-09-17T11:37:22.026Z,100839.38
2023-09-17T11:40:24.411Z,100833.84
2023-09-17T11:43:26.784Z,100835.81
2023-09-17T11:46:29.632Z,100830.72
2023-09-17T11:49:32.560Z,100831.53
2023-09-17T11:52:35.997Z,100831.91
2023-09-17T11:55:39.407Z,100835.44
2023-09-17T11:58:43.362Z,100824.41
2023-09-17T12:01:47.357Z,100827.16
2023-09-17T12:04:51.427Z,100819.25
2023-09-17T12:07:55.610Z,100818.88
2023-09-17T12:11:03.592Z,100823.56
2023-09-17T12:14:07.907Z,100798.03
2023-09-17T12:17:11.316Z,100808.56
2023-09-17T12:21:00.318Z,100818.44
2023-09-17T12:24:07.805Z,100806.63
2023-09-17T12:27:39.467Z,100806.59
2023-09-17T12:30:42.110Z,100801.53
2023-09-17T12:33:44.656Z,100795.97
2023-09-17T12:36:47.133Z,100786.09
2023-09-17T12:39:50.995Z,100788.09
2023-09-17T12:42:53.414Z,100781.78
2023-09-17T12:45:55.858Z,100772.34
2023-09-17T12:48:58.285Z,100772.34
2023-09-17T12:52:01.725Z,100774.75
2023-09-17T12:55:04.948Z,100777.09
2023-09-17T12:58:08.800Z,100776.72
2023-09-17T13:01:12.260Z,100775.19
2023-09-17T13:04:14.905Z,100777.91
2023-09-17T13:07:18.118Z,100772.38
2023-09-17T13:10:23.116Z,100759.78
2023-09-17T13:13:27.147Z,100764.16
2023-09-17T13:16:29.983Z,100771.97
2023-09-17T13:19:32.967Z,100754.38
2023-09-17T13:22:37.035Z,100759.00
2023-09-17T13:25:39.499Z,100757.38
2023-09-17T13:28:42.579Z,100752.66
2023-09-17T13:31:49.723Z,100751.53
2023-09-17T13:34:53.179Z,100751.91
2023-09-17T13:37:55.640Z,100744.03
2023-09-17T13:40:58.232Z,100748.00
2023-09-17T13:44:00.773Z,100745.66
2023-09-17T13:47:03.724Z,100751.50
2023-09-17T13:50:06.871Z,100755.88
2023-09-17T13:53:09.353Z,100741.69
2023-09-17T13:56:11.993Z,100752.69
2023-09-17T13:59:14.482Z,100751.91
2023-09-17T14:02:17.781Z,100750.34
2023-09-17T14:05:20.415Z,100740.91
2023-09-17T14:08:22.900Z,100748.78
2023-09-17T14:11:27.155Z,100740.91
2023-09-17T14:14:29.705Z,100744.44
2023-09-17T14:17:32.100Z,100740.13
2023-09-17T14:20:35.943Z,100737.78
2023-09-17T14:23:38.467Z,100729.94
2023-09-17T14:26:40.831Z,100726.03
2023-09-17T14:29:45.222Z,100735.84
2023-09-17T14:32:48.477Z,100721.28
2023-09-17T14:35:50.998Z,100731.50
2023-09-17T14:38:53.752Z,100724.44
2023-09-17T14:41:56.624Z,100718.59
2023-09-17T14:44:59.089Z,100731.16
2023-09-17T14:48:01.582Z,100726.03
2023-09-17T14:51:04.079Z,100721.28
2023-09-17T14:54:06.802Z,100720.50
2023-09-17T14:57:09.392Z,100722.91
2023-09-17T15:00:15.538Z,100711.50
2023-09-17T15:03:18.228Z,100716.22
2023-09-17T15:06:20.708Z,100711.94
2023-09-17T15:09:25.053Z,100719.00
2023-09-17T15:12:29.130Z,100714.66
2023-09-17T15:15:32.505Z,100701.72
2023-09-17T15:18:34.856Z,100707.59
2023-09-17T15:21:37.332Z,100708.75
2023-09-17T15:24:39.900Z,100705.66
2023-09-17T15:27:42.314Z,100711.94
2023-09-17T15:30:46.898Z,100710.00
2023-09-17T15:33:50.387Z,100708.06
2023-09-17T15:36:53.161Z,100715.09
2023-09-17T15:39:55.634Z,100702.56
2023-09-17T15:42:58.136Z,100708.88
2023-09-17T15:46:00.510Z,100712.00
2023-09-17T15:49:04.003Z,100704.09
2023-09-17T15:52:06.437Z,100708.06
2023-09-17T15:55:09.875Z,100692.38
2023-09-17T15:58:12.739Z,100698.22
2023-09-17T16:01:15.390Z,100697.09
2023-09-17T16:04:17.883Z,100709.25
2023-09-17T16:07:20.435Z,100694.75
2023-09-17T16:10:24.155Z,100708.50
2023-09-17T16:13:27.094Z,100711.28
2023-09-17T16:16:29.732Z,100704.19
2023-09-17T16:19:32.204Z,100718.34
2023-09-17T16:22:35.140Z,100722.31
2023-09-17T16:25:39.208Z,100717.63
2023-09-17T16:28:41.846Z,100719.19
2023-09-17T16:31:44.299Z,100716.41
2023-09-17T16:34:49.069Z,100714.91
2023-09-17T16:37:51.767Z,100725.09
2023-09-17T16:40:54.286Z,100720.00
2023-09-17T16:43:56.744Z,100714.47
2023-09-17T16:46:59.145Z,100712.91
2023-09-17T16:50:02.129Z,100716.88
2023-09-17T16:53:04.821Z,100718.84
2023-09-17T16:56:07.381Z,100712.97
2023-09-17T16:59:10.368Z,100716.16
2023-09-17T17:02:13.559Z,100723.25
2023-09-17T17:05:16.019Z,100726.78
2023-09-17T17:08:18.467Z,100702.19
2023-09-17T17:11:21.618Z,100733.13
2023-09-17T17:14:24.419Z,100735.53
2023-09-17T17:17:28.769Z,100737.91
2023-09-17T17:20:31.225Z,100738.72
2023-09-17T17:23:33.681Z,100735.22
2023-09-17T17:26:39.606Z,100742.38
2023-09-17T17:29:41.992Z,100758.06
2023-09-17T17:32:46.227Z,100744.69
2023-09-17T17:35:48.999Z,100744.31
2023-09-17T17:38:51.562Z,100745.56
2023-09-17T17:41:54.125Z,100739.31
2023-09-17T17:44:57.289Z,100746.78
2023-09-17T17:47:59.940Z,100755.41
2023-09-17T17:51:02.611Z,100761.34
2023-09-17T17:54:05.243Z,100757.47
2023-09-17T17:57:08.825Z,100755.09
2023-09-17T18:00:11.807Z,100759.03
2023-09-17T18:03:14.403Z,100768.91
2023-09-17T18:06:17.526Z,100762.25
2023-09-17T18:09:20.101Z,100779.56
2023-09-17T18:12:22.701Z,100782.72
2023-09-17T18:15:25.216Z,100785.09
2023-09-17T18:18:29.596Z,100785.50
2023-09-17T18:21:32.082Z,100791.84
2023-09-17T18:24:34.783Z,100802.06
2023-09-17T18:27:38.499Z,100805.63
2023-09-17T18:30:40.957Z,100808.00
2023-09-17T18:33:43.578Z,100800.91
2023-09-17T18:36:46.172Z,100812.31
2023-09-17T18:39:48.775Z,100814.28
2023-09-17T18:42:51.261Z,100813.91
2023-09-17T18:45:53.761Z,100812.34
2023-09-17T18:48:56.423Z,100819.06
2023-09-17T18:51:59.266Z,100830.06
2023-09-17T18:55:02.520Z,100821.06
2023-09-17T18:58:05.296Z,100826.16
2023-09-17T19:01:07.819Z,100830.88
2023-09-17T19:04:10.423Z,100838.00
2023-09-17T19:07:12.881Z,100835.25
2023-09-17T19:10:16.311Z,100836.41
2023-09-17T19:13:18.784Z,100829.75
2023-09-17T19:16:21.553Z,100839.59
2023-09-17T19:19:24.246Z,100835.25
2023-09-17T19:22:26.961Z,100832.94
2023-09-17T19:25:29.542Z,100822.28
2023-09-17T19:28:32.168Z,100838.81
2023-09-17T19:31:34.790Z,100838.44
2023-09-17T19:34:37.459Z,100830.19
2023-09-17T19:37:40.032Z,100826.28
2023-09-17T19:40:42.566Z,100835.72
2023-09-17T19:43:45.141Z,100833.34
2023-09-17T19:46:47.654Z,100827.47
2023-09-17T19:49:50.315Z,100821.16
2023-09-17T19:52:53.024Z,100823.91
2023-09-17T19:55:56.762Z,100817.66
2023-09-17T19:59:00.105Z,100829.03
2023-09-17T20:02:02.615Z,100825.91
2023-09-17T20:05:06.262Z,100828.66
2023-09-17T20:08:09.907Z,100829.06
2023-09-17T20:11:12.658Z,100818.44
2023-09-17T20:14:15.133Z,100829.47
2023-09-17T20:17:18.004Z,100832.22
2023-09-17T20:20:21.133Z,100824.78
2023-09-17T20:23:23.953Z,100826.31
2023-09-17T20:26:27.930Z,100824.34
2023-09-17T20:29:30.440Z,100816.88
2023-09-17T20:32:33.012Z,100823.19
2023-09-17T20:35:38.101Z,100820.84
2023-09-17T20:38:42.107Z,100825.16
2023-09-17T20:41:46.182Z,100826.75
2023-09-17T20:44:49.101Z,100833.03
2023-09-17T20:47:51.534Z,100838.56
2023-09-17T20:50:54.045Z,100833.44
2023-09-17T20:53:56.491Z,100829.50
2023-09-17T20:57:00.563Z,100825.59
2023-09-17T21:00:06.466Z,100835.03
2023-09-17T21:03:09.186Z,100815.38
2023-09-17T21:06:13.109Z,100815.38
2023-09-17T21:09:26.376Z,100818.13
2023-09-17T21:12:29.900Z,100832.69
2023-09-17T21:15:32.464Z,100816.56
2023-09-17T21:18:34.892Z,100819.31
2023-09-17T21:21:37.284Z,100815.75
2023-09-17T21:24:39.975Z,100810.66
2023-09-17T21:27:44.118Z,100824.44
2023-09-17T21:30:46.653Z,100813.44
2023-09-17T21:33:49.014Z,100822.47
2023-09-17T21:36:52.325Z,100818.13
2023-09-17T21:39:54.691Z,100816.19
2023-09-17T21:42:57.120Z,100812.25
2023-09-17T21:45:59.504Z,100817.78
2023-09-17T21:49:01.922Z,100815.41
2023-09-17T21:52:04.587Z,100818.56
2023-09-17T21:55:07.509Z,100808.72
2023-09-17T21:58:10.160Z,100813.47
2023-09-17T22:01:13.089Z,100811.47
2023-09-17T22:04:16.061Z,100809.91
2023-09-17T22:07:18.713Z,100803.22
2023-09-17T22:10:21.097Z,100797.34
2023-09-17T22:13:23.559Z,100812.28
2023-09-17T22:16:25.951Z,100800.47
2023-09-17T22:19:29.148Z,100793.81
2023-09-17T22:22:31.586Z,100806.78
2023-09-17T22:25:33.979Z,100798.50
2023-09-17T22:28:36.487Z,100795.75
2023-09-17T22:31:38.968Z,100806.00
2023-09-17T22:34:41.375Z,100796.56
2023-09-17T22:37:43.734Z,100792.25
2023-09-17T22:40:46.229Z,100798.94
2023-09-17T22:43:49.862Z,100790.31
2023-09-17T22:46:52.502Z,100796.16
2023-09-17T22:49:55.388Z,100794.63
2023-09-17T22:52:57.861Z,100793.81
2023-09-17T22:56:00.298Z,100799.31
2023-09-17T22:59:04.400Z,100782.06
2023-09-17T23:02:07.009Z,100789.91
2023-09-17T23:05:09.677Z,100792.28
2023-09-17T23:08:12.203Z,100791.88
2023-09-17T23:11:14.730Z,100799.34
2023-09-17T23:14:17.194Z,100801.31
2023-09-17T23:17:19.649Z,100797.78
2023-09-17T23:20:22.131Z,100792.69
2023-09-17T23:23:24.649Z,100795.44
2023-09-17T23:26:29.067Z,100798.19
2023-09-17T23:29:31.762Z,100795.81
2023-09-17T23:32:34.564Z,100794.63
2023-09-17T23:35:37.575Z,100795.84
2023-09-17T23:38:39.971Z,100802.13
2023-09-17T23:41:42.384Z,100803.72
2023-09-17T23:44:44.921Z,100808.81
2023-09-17T23:47:47.475Z,100803.72
2023-09-17T23:50:51.690Z,100802.13
2023-09-17T23:53:54.078Z,100808.44
2023-09-17T23:56:56.398Z,100804.88
2023-09-17T23:59:58.723Z,100809.22
